Time;durP1;ratioP1;P1;durP2;ratioP2;P2;SDS_P1;SDS_P2;PMS_P1;PMS_P2;Temp;Humidity;BMP_temperature;BMP_pressure;BME280_temperature;BME280_humidity;BME280_pressure;Samples;Min_cycle;Max_cycle;Signal;HPM_P1;HPM_P2
2022/05/27 00:00:51;;;;;;;2.17;1.00;;;17.90;87.80;;;;;;4995806;28;20034;-79
2022/05/27 00:03:17;;;;;;;2.38;0.82;;;17.90;87.90;;;;;;4995158;28;20031;-79
2022/05/27 00:05:43;;;;;;;3.05;0.75;;;17.90;88.10;;;;;;4979573;28;20053;-79
2022/05/27 00:08:10;;;;;;;3.95;1.05;;;17.80;88.40;;;;;;4996142;28;20030;-84
2022/05/27 00:10:36;;;;;;;1.88;0.77;;;17.80;88.70;;;;;;4997253;28;20023;-78
2022/05/27 00:13:03;;;;;;;2.03;0.82;;;17.80;88.90;;;;;;4996094;28;20514;-79
2022/05/27 00:15:29;;;;;;;2.33;0.90;;;17.80;89.20;;;;;;4995784;28;20034;-79
2022/05/27 00:17:54;;;;;;;3.40;0.73;;;17.70;89.40;;;;;;4996479;28;20077;-78
2022/05/27 00:20:21;;;;;;;1.10;0.70;;;17.70;89.70;;;;;;4996808;28;20036;-79
2022/05/27 00:22:46;;;;;;;2.28;0.90;;;17.70;89.90;;;;;;4979933;28;20031;-79
2022/05/27 00:25:13;;;;;;;1.02;0.80;;;17.70;90.10;;;;;;4994493;28;20046;-80
2022/05/27 00:27:39;;;;;;;3.65;0.70;;;17.70;90.20;;;;;;4996142;28;20456;-79
2022/05/27 00:30:06;;;;;;;3.90;1.10;;;17.60;90.40;;;;;;4995748;28;20027;-80
2022/05/27 00:32:32;;;;;;;1.38;0.80;;;17.60;90.50;;;;;;4995297;28;20058;-79
2022/05/27 00:34:58;;;;;;;0.88;0.80;;;17.60;90.60;;;;;;4995808;28;20061;-79
2022/05/27 00:37:24;;;;;;;2.15;0.80;;;17.50;90.70;;;;;;4996238;28;20387;-80
2022/05/27 00:39:49;;;;;;;1.83;0.90;;;17.50;90.80;;;;;;4997053;28;20029;-80
2022/05/27 00:42:15;;;;;;;1.88;0.60;;;17.60;90.90;;;;;;4995278;28;20096;-80
2022/05/27 00:44:40;;;;;;;2.75;0.73;;;17.50;91.10;;;;;;4995334;28;20026;-80
2022/05/27 00:47:15;;;;;;;2.20;0.95;;;17.50;91.20;;;;;;4996629;28;20038;-79
2022/05/27 00:49:59;;;;;;;1.08;0.70;;;17.50;91.50;;;;;;4995900;28;20080;-80
2022/05/27 00:52:30;;;;;;;1.23;0.73;;;17.40;91.80;;;;;;4995303;28;20030;-80
2022/05/27 00:54:55;;;;;;;2.85;0.85;;;17.30;92.00;;;;;;4995004;28;20034;-80
2022/05/27 00:57:27;;;;;;;1.77;0.80;;;17.30;92.10;;;;;;4994675;28;20036;-82
2022/05/27 01:00:00;;;;;;;1.55;0.98;;;17.30;92.30;;;;;;4979366;28;20445;-80
2022/05/27 01:02:26;;;;;;;1.30;0.88;;;17.30;92.60;;;;;;4994808;28;20030;-81
2022/05/27 01:04:52;;;;;;;2.05;0.90;;;17.20;92.80;;;;;;4994926;28;20045;-80
2022/05/27 01:07:17;;;;;;;2.25;0.80;;;17.20;92.90;;;;;;4994766;28;20132;-82
2022/05/27 01:09:47;;;;;;;1.45;0.80;;;17.20;93.10;;;;;;4995188;28;20037;-81
2022/05/27 01:12:36;;;;;;;2.35;0.73;;;17.20;93.20;;;;;;4994932;28;20026;-85
2022/05/27 01:15:21;;;;;;;1.70;0.77;;;17.20;93.50;;;;;;4978904;28;20036;-81
2022/05/27 01:17:52;;;;;;;1.73;0.80;;;17.10;93.60;;;;;;4995748;28;20030;-81
2022/05/27 01:20:30;;;;;;;2.45;0.93;;;17.20;93.60;;;;;;4978582;28;20061;-81
2022/05/27 01:23:03;;;;;;;1.27;0.70;;;17.10;93.80;;;;;;4994962;28;20041;-81
2022/05/27 01:25:50;;;;;;;1.08;0.70;;;17.10;94.00;;;;;;4978360;28;20097;-81
2022/05/27 01:28:21;;;;;;;2.67;1.45;;;17.10;94.30;;;;;;4978541;28;20472;-84
2022/05/27 01:31:23;;;;;;;2.38;1.10;;;17.10;94.40;;;;;;4978715;28;20037;-81
2022/05/27 01:34:08;;;;;;;2.42;0.70;;;17.00;94.80;;;;;;4978466;28;20472;-80
2022/05/27 01:36:49;;;;;;;2.35;0.82;;;17.00;95.00;;;;;;4976994;28;20033;-81
2022/05/27 01:39:52;;;;;;;3.97;0.90;;;17.00;95.00;;;;;;4978388;28;20035;-87
2022/05/27 01:42:21;;;;;;;2.00;0.95;;;17.00;95.20;;;;;;4977729;28;20030;-81
2022/05/27 01:44:46;;;;;;;1.63;0.90;;;17.00;95.30;;;;;;4978190;28;20133;-80
2022/05/27 01:47:21;;;;;;;2.30;0.85;;;16.90;95.50;;;;;;4978059;28;20062;-79
2022/05/27 01:49:53;;;;;;;3.15;1.00;;;16.90;95.70;;;;;;4994382;28;20125;-78
2022/05/27 01:52:29;;;;;;;1.75;0.98;;;16.90;95.80;;;;;;4993876;28;20375;-80
2022/05/27 01:55:01;;;;;;;0.90;0.75;;;16.90;96.00;;;;;;4995388;28;20069;-79
2022/05/27 01:57:30;;;;;;;;;;;16.90;96.20;;;;;;4993862;28;20030;-79
2022/05/27 01:59:56;;;;;;;2.65;0.70;;;16.90;96.50;;;;;;4994085;28;19916;-78
2022/05/27 02:02:25;;;;;;;3.90;1.00;;;16.80;96.40;;;;;;4993807;28;20035;-78
2022/05/27 02:05:02;;;;;;;1.58;0.73;;;16.80;96.50;;;;;;4993260;28;20141;-78
2022/05/27 02:07:51;;;;;;;3.08;1.20;;;16.80;96.80;;;;;;4994051;28;20058;-78
2022/05/27 02:10:27;;;;;;;3.17;1.10;;;16.80;96.80;;;;;;4993279;28;20034;-81
2022/05/27 02:13:16;;;;;;;1.92;0.98;;;16.80;97.00;;;;;;4993426;28;20026;-79
2022/05/27 02:15:45;;;;;;;3.72;1.70;;;16.70;97.10;;;;;;4992585;28;20031;-79
2022/05/27 02:18:44;;;;;;;2.10;0.93;;;16.80;97.20;;;;;;4977229;28;20023;-78
2022/05/27 02:21:38;;;;;;;1.98;0.90;;;16.70;97.50;;;;;;4977274;28;20022;-78
2022/05/27 02:24:22;;;;;;;3.38;1.10;;;16.70;97.60;;;;;;4994437;28;20033;-77
2022/05/27 02:26:57;;;;;;;4.50;1.25;;;16.70;97.80;;;;;;4977220;28;20045;-78
2022/05/27 02:29:28;;;;;;;1.95;0.90;;;16.70;97.80;;;;;;4992442;28;20027;-78
2022/05/27 02:32:01;;;;;;;3.67;1.10;;;16.60;98.00;;;;;;4993145;28;20117;-78
2022/05/27 02:37:21;;;;;;;4.60;1.10;;;16.60;98.40;;;;;;4993726;28;20070;-79
2022/05/27 02:39:47;;;;;;;3.80;1.20;;;16.60;98.50;;;;;;4977066;28;20022;-78
2022/05/27 02:42:28;;;;;;;2.45;1.00;;;16.50;98.60;;;;;;4976973;28;20065;-78
2022/05/27 02:45:09;;;;;;;2.35;0.93;;;16.50;98.80;;;;;;4994388;28;20045;-78
2022/05/27 02:47:47;;;;;;;2.28;1.40;;;16.50;99.00;;;;;;4976481;28;20026;-80
2022/05/27 02:50:26;;;;;;;2.33;1.20;;;16.50;99.10;;;;;;4994541;28;20101;-80
2022/05/27 02:53:17;;;;;;;2.13;0.95;;;16.50;99.30;;;;;;4993590;28;20027;-80
2022/05/27 02:55:54;;;;;;;3.85;1.63;;;16.40;99.40;;;;;;4976812;28;20037;-80
2022/05/27 02:58:19;;;;;;;3.05;1.20;;;16.30;99.90;;;;;;4976558;28;20033;-85
2022/05/27 03:00:46;;;;;;;4.40;1.35;;;16.30;99.90;;;;;;4977105;28;20023;-80
2022/05/27 03:03:12;;;;;;;5.43;1.52;;;16.20;99.90;;;;;;4993358;28;20034;-80
2022/05/27 03:06:04;;;;;;;1.88;1.08;;;16.20;99.90;;;;;;4992772;28;20045;-79
2022/05/27 03:08:49;;;;;;;2.53;1.48;;;16.30;99.90;;;;;;4993251;28;20026;-80
2022/05/27 03:11:37;;;;;;;3.17;1.20;;;16.30;99.90;;;;;;4992759;28;20026;-80
2022/05/27 03:14:17;;;;;;;2.15;1.20;;;16.30;99.90;;;;;;4993278;28;20034;-80
2022/05/27 03:16:58;;;;;;;3.83;1.30;;;16.30;99.90;;;;;;4976090;28;20380;-79
2022/05/27 03:19:39;;;;;;;4.40;2.10;;;16.20;99.90;;;;;;4976022;28;20464;-80
2022/05/27 03:22:27;;;;;;;3.05;1.67;;;16.30;99.90;;;;;;4993934;28;20127;-80
2022/05/27 03:24:58;;;;;;;5.10;1.27;;;16.20;99.90;;;;;;4991957;28;20057;-79
2022/05/27 03:27:57;;;;;;;1.90;1.30;;;16.20;99.90;;;;;;4975907;28;20035;-80
2022/05/27 03:30:31;;;;;;;1.83;1.30;;;16.20;99.90;;;;;;4992491;28;20043;-84
2022/05/27 03:33:34;;;;;;;3.83;1.33;;;16.10;99.90;;;;;;4993890;28;20038;-79
2022/05/27 03:36:23;;;;;;;3.60;1.52;;;16.10;99.90;;;;;;4992682;28;20041;-79
2022/05/27 03:38:54;;;;;;;3.97;1.80;;;16.00;99.90;;;;;;4992998;28;20030;-79
2022/05/27 03:41:31;;;;;;;3.42;1.50;;;16.00;99.90;;;;;;4993777;28;20027;-86
2022/05/27 03:43:57;;;;;;;1.92;1.45;;;16.00;99.90;;;;;;4993693;28;20034;-79
2022/05/27 03:46:49;;;;;;;2.78;1.50;;;16.00;99.90;;;;;;4993198;28;20042;-83
2022/05/27 03:49:15;;;;;;;4.15;1.70;;;16.00;99.90;;;;;;4989327;28;20483;-79
2022/05/27 03:52:02;;;;;;;4.07;1.75;;;16.00;99.90;;;;;;4991623;28;20022;-79
2022/05/27 03:54:28;;;;;;;3.08;2.00;;;16.10;99.90;;;;;;4992354;28;20502;-79
2022/05/27 03:56:54;;;;;;;8.70;1.88;;;16.00;99.90;;;;;;4976248;28;20031;-80
2022/05/27 03:59:19;;;;;;;5.25;1.88;;;16.00;99.90;;;;;;4976644;28;20026;-79
2022/05/27 04:01:50;;;;;;;8.20;2.13;;;16.00;99.90;;;;;;4995230;28;20389;-80
2022/05/27 04:04:20;;;;;;;4.00;1.60;;;16.10;99.90;;;;;;4995842;28;20387;-79
2022/05/27 04:06:48;;;;;;;4.80;2.30;;;16.10;99.90;;;;;;4996454;28;20117;-79
2022/05/27 04:09:16;;;;;;;4.38;2.25;;;16.10;99.90;;;;;;4996090;28;20033;-79
2022/05/27 04:11:42;;;;;;;4.78;1.80;;;16.10;99.90;;;;;;4995757;28;20027;-79
2022/05/27 04:14:09;;;;;;;3.78;2.10;;;16.20;99.90;;;;;;4996037;28;20088;-79
2022/05/27 04:16:34;;;;;;;3.92;2.10;;;16.20;99.90;;;;;;4995381;28;20026;-80
2022/05/27 04:19:00;;;;;;;2.78;1.80;;;16.10;99.90;;;;;;4979471;28;20023;-79
2022/05/27 04:21:26;;;;;;;3.72;2.08;;;16.20;99.90;;;;;;4995327;28;20022;-83
2022/05/27 04:23:51;;;;;;;5.10;2.20;;;16.20;99.90;;;;;;4995492;28;20037;-79
2022/05/27 04:26:18;;;;;;;3.10;1.63;;;16.20;99.90;;;;;;4995508;28;20090;-79
2022/05/27 04:28:44;;;;;;;5.13;1.90;;;16.20;99.90;;;;;;4995547;28;20308;-79
2022/05/27 04:31:11;;;;;;;4.63;2.00;;;16.20;99.90;;;;;;4996181;28;20034;-79
2022/05/27 04:33:37;;;;;;;4.25;2.13;;;16.20;99.90;;;;;;4994662;28;20031;-80
2022/05/27 04:36:04;;;;;;;7.43;2.28;;;16.20;99.90;;;;;;4995684;28;20026;-79
2022/05/27 04:38:30;;;;;;;5.43;1.85;;;16.20;99.90;;;;;;4995325;28;20027;-80
2022/05/27 04:40:56;;;;;;;3.50;1.92;;;16.20;99.90;;;;;;4995674;28;20026;-80
2022/05/27 04:43:22;;;;;;;3.53;1.90;;;16.20;99.90;;;;;;4995610;28;20026;-80
2022/05/27 04:45:48;;;;;;;4.75;1.88;;;16.30;99.90;;;;;;4995112;28;20092;-81
2022/05/27 04:48:16;;;;;;;3.33;2.20;;;16.30;99.90;;;;;;4996660;28;20101;-80
2022/05/27 04:50:41;;;;;;;4.28;2.28;;;16.20;99.90;;;;;;4995088;28;20459;-81
2022/05/27 04:53:07;;;;;;;4.18;2.00;;;16.20;99.90;;;;;;4979217;28;20026;-80
2022/05/27 04:55:34;;;;;;;2.88;1.80;;;16.20;99.90;;;;;;4994214;28;20027;-80
2022/05/27 04:57:59;;;;;;;5.55;2.25;;;16.20;99.90;;;;;;4978922;28;20159;-80
2022/05/27 05:00:29;;;;;;;6.43;2.15;;;16.30;99.90;;;;;;4995152;28;20456;-84
2022/05/27 05:02:55;;;;;;;4.70;1.83;;;16.20;99.90;;;;;;4995496;28;20057;-79
2022/05/27 05:05:23;;;;;;;5.55;2.03;;;16.30;99.90;;;;;;4994524;28;20471;-80
2022/05/27 05:08:04;;;;;;;3.20;2.00;;;16.30;99.90;;;;;;4995683;28;20030;-81
2022/05/27 05:10:30;;;;;;;3.97;2.20;;;16.30;99.90;;;;;;4995871;28;20101;-81
2022/05/27 05:12:56;;;;;;;4.40;1.98;;;16.30;99.90;;;;;;4995056;28;20022;-81
2022/05/27 05:15:24;;;;;;;5.72;2.00;;;16.30;99.90;;;;;;4978585;28;20026;-80
2022/05/27 05:17:50;;;;;;;3.78;2.35;;;16.30;99.90;;;;;;4993928;28;20030;-80
2022/05/27 05:20:20;;;;;;;4.60;2.42;;;16.30;99.90;;;;;;4994381;28;20222;-80
2022/05/27 05:22:46;;;;;;;2.75;1.95;;;16.20;99.90;;;;;;4993948;28;20458;-79
2022/05/27 05:25:12;;;;;;;4.15;2.10;;;16.30;99.90;;;;;;4995286;28;20146;-79
2022/05/27 05:27:40;;;;;;;6.85;2.10;;;16.30;99.90;;;;;;4995234;28;20038;-80
2022/05/27 05:30:10;;;;;;;4.80;2.45;;;16.30;99.90;;;;;;4995378;28;20026;-79
2022/05/27 05:32:36;;;;;;;2.20;1.67;;;16.40;99.90;;;;;;4993874;28;20030;-79
2022/05/27 05:35:02;;;;;;;4.07;1.92;;;16.40;99.90;;;;;;4978215;28;20060;-79
2022/05/27 05:37:28;;;;;;;2.75;1.95;;;16.40;99.90;;;;;;4994010;28;20537;-85
2022/05/27 05:39:53;;;;;;;5.25;1.88;;;16.50;99.90;;;;;;4994093;28;20109;-79
2022/05/27 05:42:19;;;;;;;3.13;1.90;;;16.50;99.90;;;;;;4978045;28;20026;-79
2022/05/27 05:44:45;;;;;;;3.88;2.00;;;16.50;99.90;;;;;;4993809;28;20031;-79
2022/05/27 05:47:11;;;;;;;4.63;2.13;;;16.50;99.90;;;;;;4977925;28;20460;-79
2022/05/27 05:49:37;;;;;;;2.85;1.55;;;16.50;99.90;;;;;;4977510;28;20080;-79
2022/05/27 05:52:04;;;;;;;9.05;1.98;;;16.50;99.90;;;;;;4994414;28;20057;-81
2022/05/27 05:54:30;;;;;;;4.30;1.83;;;16.50;99.90;;;;;;4994222;28;20057;-86
2022/05/27 05:57:00;;;;;;;2.55;1.95;;;16.50;99.90;;;;;;4977803;28;20026;-82
2022/05/27 05:59:33;;;;;;;3.28;1.55;;;16.40;99.90;;;;;;4994050;28;20026;-81
2022/05/27 06:01:59;;;;;;;4.78;1.90;;;16.50;99.90;;;;;;4995240;28;20113;-81
2022/05/27 06:04:25;;;;;;;3.72;1.73;;;16.50;99.90;;;;;;4995068;28;20042;-81
2022/05/27 06:06:51;;;;;;;3.65;1.67;;;16.50;99.90;;;;;;4994945;28;20587;-81
2022/05/27 06:09:19;;;;;;;7.22;1.90;;;16.40;99.90;;;;;;4993658;28;20040;-81
2022/05/27 06:11:44;;;;;;;7.50;1.98;;;16.50;99.90;;;;;;4993692;28;20169;-82
2022/05/27 06:14:11;;;;;;;5.32;2.22;;;16.60;99.90;;;;;;4993757;28;20086;-81
2022/05/27 06:16:37;;;;;;;3.20;2.00;;;16.60;99.90;;;;;;4977437;28;20033;-82
2022/05/27 06:19:03;;;;;;;4.25;1.95;;;16.60;99.90;;;;;;4977967;28;20023;-81
2022/05/27 06:21:28;;;;;;;2.05;1.48;;;16.60;99.90;;;;;;4977896;28;20455;-82
2022/05/27 06:23:54;;;;;;;4.50;1.90;;;16.70;99.90;;;;;;4993084;28;20098;-81
2022/05/27 06:26:20;;;;;;;3.25;1.65;;;16.70;99.90;;;;;;4993831;28;20444;-82
2022/05/27 06:34:26;;;;;;;2.90;1.70;;;16.60;99.90;;;;;;4994773;28;20500;-79
2022/05/27 06:37:15;;;;;;;7.93;1.77;;;16.60;99.90;;;;;;4994367;28;20469;-80
2022/05/27 06:39:41;;;;;;;2.38;1.42;;;16.60;99.90;;;;;;4975031;28;20042;-80
2022/05/27 06:42:09;;;;;;;3.63;1.40;;;16.60;99.90;;;;;;4956081;28;20030;-82
2022/05/27 06:44:36;;;;;;;6.80;3.65;;;16.60;99.90;;;;;;4969424;28;20037;-85
2022/05/27 06:47:02;;;;;;;3.88;2.63;;;16.60;99.90;;;;;;4969422;28;20110;-82
2022/05/27 06:49:28;;;;;;;3.42;1.80;;;16.60;99.90;;;;;;4969444;28;20018;-81
2022/05/27 06:51:53;;;;;;;3.33;1.92;;;16.70;99.90;;;;;;4970310;28;20022;-82
2022/05/27 06:54:21;;;;;;;2.65;1.85;;;16.70;99.90;;;;;;4960493;28;21611;-81
2022/05/27 06:56:50;;;;;;;2.17;1.63;;;16.70;99.90;;;;;;4968877;28;20031;-79
2022/05/27 06:59:16;;;;;;;2.67;1.33;;;16.70;99.90;;;;;;4960382;28;20027;-80
2022/05/27 07:01:42;;;;;;;2.50;1.58;;;16.80;99.90;;;;;;4956444;28;20031;-80
2022/05/27 07:04:09;;;;;;;3.13;1.80;;;16.70;99.90;;;;;;4972893;28;20054;-80
2022/05/27 07:06:43;;;;;;;4.20;1.60;;;16.70;99.90;;;;;;4973262;28;20046;-83
2022/05/27 07:09:12;;;;;;;3.42;1.80;;;16.70;99.90;;;;;;4973303;28;20023;-82
2022/05/27 07:11:40;;;;;;;3.83;1.58;;;16.70;99.90;;;;;;4972597;28;20050;-83
2022/05/27 07:14:06;;;;;;;5.10;1.60;;;16.70;99.90;;;;;;4973440;28;20023;-81
2022/05/27 07:16:32;;;;;;;3.22;1.38;;;16.70;99.90;;;;;;4973029;28;20483;-81
2022/05/27 07:18:58;;;;;;;2.33;1.30;;;16.70;99.90;;;;;;4973762;28;20026;-80
2022/05/27 07:21:25;;;;;;;2.53;1.38;;;16.80;99.90;;;;;;4973552;28;20437;-81
2022/05/27 07:23:55;;;;;;;2.83;1.38;;;16.70;99.80;;;;;;4972353;28;20039;-80
2022/05/27 07:26:25;;;;;;;2.15;1.60;;;16.70;99.70;;;;;;4974172;28;20046;-81
2022/05/27 07:28:51;;;;;;;3.22;1.77;;;16.80;99.90;;;;;;4972959;28;20376;-80
2022/05/27 07:31:17;;;;;;;2.78;1.60;;;16.70;99.60;;;;;;4973325;28;20023;-80
2022/05/27 07:33:44;;;;;;;3.10;1.80;;;16.70;99.80;;;;;;4973493;28;20039;-78
2022/05/27 07:36:10;;;;;;;3.10;1.77;;;16.70;99.70;;;;;;4976061;28;20038;-80
2022/05/27 07:38:36;;;;;;;2.78;1.80;;;16.60;99.80;;;;;;4976065;28;20030;-80
2022/05/27 07:41:02;;;;;;;2.72;1.60;;;16.70;99.80;;;;;;4976466;28;20054;-80
2022/05/27 07:43:28;;;;;;;1.60;1.35;;;16.70;99.80;;;;;;4976389;28;20030;-79
2022/05/27 07:45:54;;;;;;;3.33;1.65;;;16.60;99.90;;;;;;4975955;28;20265;-79
2022/05/27 07:48:19;;;;;;;2.58;1.70;;;16.70;99.90;;;;;;4976244;28;20085;-79
2022/05/27 07:50:45;;;;;;;2.63;1.70;;;16.70;99.90;;;;;;4975912;28;20030;-79
2022/05/27 07:53:11;;;;;;;2.03;1.70;;;16.70;99.90;;;;;;4976163;28;20105;-79
2022/05/27 07:55:37;;;;;;;4.90;1.88;;;16.70;99.90;;;;;;4975846;28;20105;-84
2022/05/27 07:58:03;;;;;;;3.83;1.67;;;16.70;99.90;;;;;;4976080;28;20093;-79
2022/05/27 08:00:32;;;;;;;3.20;1.73;;;16.70;99.90;;;;;;4976976;28;20058;-79
2022/05/27 08:02:58;;;;;;;3.78;1.77;;;16.80;99.90;;;;;;4977032;28;20677;-79
2022/05/27 08:05:32;;;;;;;3.95;1.73;;;16.80;99.90;;;;;;4959995;28;20035;-79
2022/05/27 08:07:58;;;;;;;2.65;1.80;;;16.80;99.90;;;;;;4976030;28;20080;-79
2022/05/27 08:10:28;;;;;;;3.75;1.65;;;16.90;99.90;;;;;;4976348;28;20093;-79
2022/05/27 08:12:54;;;;;;;3.05;2.00;;;17.00;99.90;;;;;;4975947;28;20530;-79
2022/05/27 08:15:20;;;;;;;4.97;1.80;;;17.00;99.90;;;;;;4976099;28;20113;-79
2022/05/27 08:17:46;;;;;;;2.22;1.63;;;17.10;99.70;;;;;;4975951;28;20121;-79
2022/05/27 08:20:18;;;;;;;2.80;1.85;;;17.20;99.90;;;;;;4975670;28;20035;-78
2022/05/27 08:22:45;;;;;;;3.15;1.75;;;17.30;99.50;;;;;;4974702;28;20031;-92
2022/05/27 08:25:10;;;;;;;2.10;1.60;;;17.30;99.60;;;;;;4978995;28;20404;-92
2022/05/27 08:27:36;;;;;;;2.30;1.73;;;17.30;99.70;;;;;;4976592;28;20027;-88
2022/05/27 08:30:03;;;;;;;2.50;1.55;;;17.30;99.90;;;;;;4976134;28;20034;-82
2022/05/27 08:32:31;;;;;;;2.80;1.27;;;17.30;99.50;;;;;;4959307;28;20027;-83
2022/05/27 08:40:35;;;;;;;3.85;1.75;;;17.50;99.40;;;;;;4996455;28;20042;-80
2022/05/27 08:43:23;;;;;;;2.63;1.33;;;17.60;99.20;;;;;;4978714;28;20506;-83
2022/05/27 08:45:52;;;;;;;2.35;1.55;;;17.50;99.20;;;;;;4994124;28;20077;-83
2022/05/27 08:48:19;;;;;;;2.83;1.50;;;17.50;99.00;;;;;;4970681;28;20046;-83
2022/05/27 08:51:24;;;;;;;3.75;1.50;;;17.60;98.90;;;;;;4943574;28;20053;-83
2022/05/27 08:54:35;;;;;;;9.48;4.15;;;17.60;98.60;;;;;;4956537;28;20043;-83
2022/05/27 09:00:14;;;;;;;4.35;2.10;;;17.70;98.30;;;;;;4976317;28;20042;-81
2022/05/27 09:03:04;;;;;;;2.65;1.65;;;17.70;98.20;;;;;;4976871;28;20023;-84
2022/05/27 09:05:59;;;;;;;3.42;1.33;;;17.70;98.30;;;;;;4975557;28;20463;-82
2022/05/27 09:08:30;;;;;;;3.72;1.50;;;17.80;98.20;;;;;;4975057;28;20035;-82
2022/05/27 09:11:07;;;;;;;2.42;1.50;;;17.80;98.10;;;;;;4974955;28;20872;-81
2022/05/27 09:13:36;;;;;;;2.88;1.40;;;17.70;97.70;;;;;;4957872;28;20045;-79
2022/05/27 09:16:15;;;;;;;3.22;1.20;;;17.70;97.90;;;;;;4958582;28;20027;-82
2022/05/27 09:19:00;;;;;;;2.15;1.27;;;17.70;97.70;;;;;;4955862;29;20468;-86
2022/05/27 09:21:44;;;;;;;2.95;1.83;;;17.70;97.50;;;;;;4959624;28;20037;-80
2022/05/27 09:24:28;;;;;;;2.78;1.45;;;17.70;97.20;;;;;;4959825;28;20156;-81
2022/05/27 09:27:03;;;;;;;1.35;1.00;;;17.80;96.60;;;;;;4958719;28;20078;-82
2022/05/27 09:29:39;;;;;;;2.65;1.10;;;17.80;96.30;;;;;;4975270;28;20103;-81
2022/05/27 09:32:32;;;;;;;2.50;1.63;;;17.90;96.40;;;;;;4962504;28;20527;-81
2022/05/27 09:35:04;;;;;;;3.92;1.50;;;18.00;96.30;;;;;;4959977;28;20041;-81
2022/05/27 09:37:35;;;;;;;2.20;1.15;;;18.10;96.30;;;;;;4955660;29;20118;-82
2022/05/27 09:40:16;;;;;;;2.72;1.30;;;18.10;96.30;;;;;;4961329;28;20033;-83
2022/05/27 09:42:58;;;;;;;1.42;1.08;;;18.00;96.10;;;;;;4973781;28;20035;-84
2022/05/27 09:45:23;;;;;;;2.05;1.30;;;18.10;96.40;;;;;;4976444;28;20062;-79
2022/05/27 09:47:51;;;;;;;2.00;1.25;;;18.20;96.50;;;;;;4958442;28;20030;-80
2022/05/27 09:50:40;;;;;;;3.03;1.40;;;18.30;96.30;;;;;;4976320;28;20538;-80
2022/05/27 09:53:11;;;;;;;3.10;1.15;;;18.60;95.90;;;;;;4978431;28;20027;-81
2022/05/27 09:55:52;;;;;;;2.25;1.23;;;18.70;95.60;;;;;;4958361;28;20031;-80
2022/05/27 09:58:26;;;;;;;2.28;1.20;;;18.80;94.90;;;;;;4954445;28;20039;-82
2022/05/27 10:00:52;;;;;;;1.30;0.90;;;19.00;94.10;;;;;;4973505;28;20058;-81
2022/05/27 10:03:41;;;;;;;1.30;1.10;;;19.00;93.90;;;;;;4974834;28;20073;-81
2022/05/27 10:06:24;;;;;;;3.45;1.13;;;19.10;93.70;;;;;;4974629;28;20237;-81
2022/05/27 10:09:27;;;;;;;1.60;1.00;;;19.20;93.10;;;;;;4973614;28;20030;-82
2022/05/27 10:12:14;;;;;;;1.98;1.00;;;19.20;92.70;;;;;;4897795;29;20067;-84
2022/05/27 10:14:57;;;;;;;1.63;0.98;;;19.30;93.00;;;;;;4899748;29;20040;-82
2022/05/27 10:17:39;;;;;;;1.48;0.90;;;19.40;92.70;;;;;;4904110;29;20122;-81
2022/05/27 10:20:20;;;;;;;2.97;1.10;;;19.40;92.60;;;;;;4903732;29;20513;-84
2022/05/27 10:23:07;;;;;;;1.27;0.85;;;19.40;92.40;;;;;;4902999;29;20040;-84
2022/05/27 10:25:35;;;;;;;2.42;1.30;;;19.50;92.50;;;;;;4895477;29;20411;-79
2022/05/27 10:28:00;;;;;;;1.50;1.08;;;19.40;92.70;;;;;;4882914;29;20051;-85
2022/05/27 10:30:29;;;;;;;2.60;1.20;;;19.50;92.80;;;;;;4895732;29;20494;-79
2022/05/27 10:33:18;;;;;;;1.60;1.20;;;19.50;92.40;;;;;;4898579;29;20063;-81
2022/05/27 10:35:46;;;;;;;3.92;1.25;;;19.50;91.90;;;;;;4895254;29;20123;-81
2022/05/27 10:38:48;;;;;;;6.13;2.25;;;19.60;92.20;;;;;;4896157;29;20090;-83
2022/05/27 10:41:37;;;;;;;39.40;18.77;;;19.80;92.00;;;;;;4905969;29;20515;-83
2022/05/27 10:44:19;;;;;;;11.15;4.22;;;19.80;92.00;;;;;;4902710;29;20054;-82
2022/05/27 10:46:55;;;;;;;3.38;2.50;;;19.70;91.80;;;;;;4897358;29;20143;-79
2022/05/27 10:49:51;;;;;;;2.00;1.40;;;19.70;91.70;;;;;;4935286;29;20035;-80
2022/05/27 10:52:29;;;;;;;3.20;1.20;;;19.80;91.90;;;;;;4936561;29;20097;-80
2022/05/27 10:55:21;;;;;;;1.10;1.00;;;20.00;91.30;;;;;;4904784;29;20134;-81
2022/05/27 11:04:34;;;;;;;2.22;1.25;;;20.30;89.80;;;;;;4879905;29;20043;-79
2022/05/27 11:07:29;;;;;;;5.03;1.27;;;20.30;88.50;;;;;;4869258;29;20229;-80
2022/05/27 11:10:25;;;;;;;2.58;0.80;;;20.30;88.40;;;;;;4860023;29;20052;-78
2022/05/27 11:16:14;;;;;;;1.58;0.90;;;20.00;88.40;;;;;;4883189;29;20459;-79
2022/05/27 11:19:17;;;;;;;2.20;0.90;;;19.90;88.60;;;;;;4843738;29;20083;-81
2022/05/27 11:22:04;;;;;;;2.08;0.80;;;19.80;90.00;;;;;;4837566;29;20151;-81
2022/05/27 11:25:03;;;;;;;2.38;0.80;;;19.90;89.80;;;;;;4852684;29;20045;-79
2022/05/27 11:27:36;;;;;;;1.55;0.75;;;19.70;89.60;;;;;;4847106;29;20404;-84
2022/05/27 11:30:07;;;;;;;0.98;0.77;;;19.60;90.20;;;;;;4846108;29;20093;-82
2022/05/27 11:33:18;;;;;;;2.17;0.80;;;19.50;90.20;;;;;;4851735;29;20030;-80
2022/05/27 11:36:27;;;;;;;2.17;0.80;;;19.40;90.10;;;;;;4876568;29;20048;-81
2022/05/27 11:39:38;;;;;;;1.15;0.80;;;19.30;90.20;;;;;;4898885;29;20068;-81
2022/05/27 11:42:28;;;;;;;3.35;0.98;;;19.30;90.50;;;;;;4874379;29;20041;-81
2022/05/27 11:45:11;;;;;;;1.33;0.82;;;19.20;90.80;;;;;;4892810;29;20037;-81
2022/05/27 11:47:57;;;;;;;0.95;0.60;;;19.20;90.80;;;;;;4899000;29;20056;-79
2022/05/27 11:50:43;;;;;;;1.00;0.88;;;19.20;90.70;;;;;;4897971;29;20036;-79
2022/05/27 11:53:30;;;;;;;1.23;0.80;;;19.10;90.70;;;;;;4882012;29;20052;-79
2022/05/27 11:56:17;;;;;;;2.25;0.80;;;19.10;91.00;;;;;;4939504;28;20026;-79
2022/05/27 11:59:03;;;;;;;0.90;0.70;;;19.10;91.10;;;;;;4973594;28;20027;-80
2022/05/27 12:01:51;;;;;;;1.65;0.90;;;19.10;91.20;;;;;;4975263;28;20030;-85
2022/05/27 12:04:31;;;;;;;3.72;0.73;;;19.10;91.40;;;;;;4975456;28;20027;-81
2022/05/27 12:07:09;;;;;;;1.45;0.95;;;19.10;91.60;;;;;;4958442;28;20043;-79
2022/05/27 12:10:15;;;;;;;2.38;0.82;;;19.00;91.80;;;;;;4975032;28;20019;-80
2022/05/27 12:12:51;;;;;;;4.22;0.85;;;19.10;92.00;;;;;;4958679;28;20166;-88
2022/05/27 12:15:29;;;;;;;5.63;1.65;;;19.10;91.90;;;;;;4955419;28;20517;-78
2022/05/27 12:17:57;;;;;;;1.60;0.90;;;19.10;92.10;;;;;;4974262;28;20029;-78
2022/05/27 12:20:32;;;;;;;1.33;0.80;;;19.20;92.20;;;;;;4957503;28;20121;-86
2022/05/27 12:23:03;;;;;;;3.10;0.85;;;19.10;92.10;;;;;;4974418;28;20063;-82
2022/05/27 12:25:34;;;;;;;4.95;2.20;;;19.00;92.10;;;;;;4974288;28;20055;-81
2022/05/27 12:28:02;;;;;;;1.00;0.90;;;19.10;92.30;;;;;;4958809;28;20037;-81
2022/05/27 12:30:40;;;;;;;3.67;2.03;;;19.20;92.30;;;;;;4976022;28;20066;-82
2022/05/27 12:33:11;;;;;;;1.75;1.20;;;19.10;92.50;;;;;;4974996;28;20357;-79
2022/05/27 12:35:57;;;;;;;1.75;0.93;;;19.10;92.30;;;;;;4915950;29;20083;-79
2022/05/27 12:38:27;;;;;;;1.27;1.00;;;19.10;92.30;;;;;;4916222;29;20044;-79
2022/05/27 12:40:59;;;;;;;2.40;1.00;;;19.20;92.30;;;;;;4915420;29;20131;-78
2022/05/27 12:43:39;;;;;;;2.08;0.90;;;19.20;92.10;;;;;;4915826;29;20036;-79
2022/05/27 12:46:44;;;;;;;1.38;1.00;;;19.40;92.10;;;;;;4915532;29;20036;-79
2022/05/27 12:49:35;;;;;;;3.78;2.20;;;19.50;91.90;;;;;;4896849;29;20576;-79
2022/05/27 12:52:30;;;;;;;1.92;1.27;;;19.50;91.90;;;;;;4911994;29;20131;-78
2022/05/27 12:55:41;;;;;;;2.13;1.20;;;19.40;92.10;;;;;;4888933;29;20104;-77
2022/05/27 13:01:29;;;;;;;2.40;1.20;;;19.20;92.70;;;;;;4878660;29;20041;-79
2022/05/27 13:04:02;;;;;;;1.38;1.13;;;19.00;92.90;;;;;;4864762;29;20061;-78
2022/05/27 13:06:30;;;;;;;2.05;1.15;;;18.80;93.10;;;;;;4905126;29;20542;-77
2022/05/27 13:08:57;;;;;;;1.10;0.70;;;18.70;93.50;;;;;;4915348;29;20048;-78
2022/05/27 13:11:33;;;;;;;3.33;1.10;;;18.80;93.50;;;;;;4899863;29;20123;-78
2022/05/27 13:14:05;;;;;;;1.88;0.90;;;18.80;93.40;;;;;;4899863;29;20036;-79
2022/05/27 13:16:31;;;;;;;;;;;18.70;93.50;;;;;;4921758;29;20131;-79
2022/05/27 13:19:07;;;;;;;2.58;0.82;;;18.70;93.40;;;;;;4899694;29;19985;-79
2022/05/27 13:21:41;;;;;;;2.20;0.70;;;18.70;93.60;;;;;;4899784;29;20505;-77
2022/05/27 13:24:26;;;;;;;1.50;0.70;;;18.70;93.80;;;;;;4914275;29;20040;-76
2022/05/27 13:26:58;;;;;;;1.95;1.02;;;18.80;93.60;;;;;;4895780;29;20498;-78
2022/05/27 13:29:28;;;;;;;4.82;0.75;;;18.90;93.50;;;;;;4898178;29;20040;-80
2022/05/27 13:32:05;;;;;;;2.33;0.77;;;18.90;93.30;;;;;;4915625;29;20031;-79
2022/05/27 13:34:41;;;;;;;0.80;0.70;;;18.90;93.40;;;;;;4927889;28;20087;-79
2022/05/27 13:37:19;;;;;;;1.40;0.80;;;18.90;93.50;;;;;;4957633;28;20117;-78
2022/05/27 13:39:52;;;;;;;0.95;0.70;;;18.90;93.40;;;;;;4949596;28;20030;-79
2022/05/27 13:42:27;;;;;;;1.55;0.90;;;18.90;93.60;;;;;;4974185;28;20031;-78
2022/05/27 13:44:55;;;;;;;1.67;0.70;;;19.10;93.50;;;;;;4967254;28;20432;-78
2022/05/27 13:47:25;;;;;;;1.77;0.70;;;19.10;93.40;;;;;;4973167;28;20022;-79
2022/05/27 13:49:51;;;;;;;3.40;0.75;;;19.20;93.40;;;;;;4973639;28;20022;-79
2022/05/27 13:52:28;;;;;;;1.20;0.52;;;19.10;93.40;;;;;;4974599;28;20019;-77
2022/05/27 13:55:25;;;;;;;1.48;0.82;;;19.10;93.40;;;;;;4973064;28;20034;-80